Time;durP1;ratioP1;P1;durP2;ratioP2;P2;SDS_P1;SDS_P2;PMS_P1;PMS_P2;Temp;Humidity;BMP_temperature;BMP_pressure;BME280_temperature;BME280_humidity;BME280_pressure;Samples;Min_cycle;Max_cycle;Signal;HPM_P1;HPM_P2
2024/01/19 00:00:32;;;;;;;2.60;0.30;;;;;;;;;;5040338;28;20060;-79
2024/01/19 00:02:58;;;;;;;8.05;0.20;;;;;;;;;;5023562;28;20045;-79
2024/01/19 00:05:24;;;;;;;3.92;0.30;;;;;;;;;;5040540;28;20132;-79
2024/01/19 00:07:50;;;;;;;5.60;0.30;;;;;;;;;;5039792;28;20106;-79
2024/01/19 00:10:16;;;;;;;4.70;0.20;;;;;;;;;;5040096;28;20047;-79
2024/01/19 00:12:42;;;;;;;3.63;1.58;;;-0.20;99.90;;;;;;5022908;28;20048;-79
2024/01/19 00:15:09;;;;;;;2.72;0.10;;;;;;;;;;5039643;28;20041;-79
2024/01/19 00:17:36;;;;;;;0.50;0.00;;;;;;;;;;5039460;28;20188;-79
2024/01/19 00:20:02;;;;;;;0.93;0.10;;;;;;;;;;5008894;28;20041;-79
2024/01/19 00:22:28;;;;;;;0.90;0.10;;;;;;;;;;5022262;28;20083;-79
2024/01/19 00:24:54;;;;;;;2.90;0.10;;;;;;;;;;5023543;28;20044;-78
2024/01/19 00:27:20;;;;;;;1.52;0.68;;;;;;;;;;5024197;28;20049;-78
2024/01/19 00:29:46;;;;;;;3.10;0.10;;;;;;;;;;5013686;28;20052;-78
2024/01/19 00:32:13;;;;;;;1.05;0.10;;;;;;;;;;5036962;28;20048;-78
2024/01/19 00:34:39;;;;;;;3.67;0.13;;;;;;;;;;5039699;28;20060;-78
2024/01/19 00:37:07;;;;;;;2.47;0.22;;;;;;;;;;5038588;28;20618;-79
2024/01/19 00:39:33;;;;;;;4.53;0.20;;;;;;;;;;5039780;28;20186;-78
2024/01/19 00:41:58;;;;;;;1.00;0.10;;;-0.10;99.90;;;;;;5023794;28;20047;-79
2024/01/19 00:44:25;;;;;;;1.58;0.10;;;;;;;;;;5040078;28;20051;-79
2024/01/19 00:46:51;;;;;;;7.40;0.40;;;;;;;;;;5039799;28;20085;-79
2024/01/19 00:49:17;;;;;;;6.40;1.30;;;;;;;;;;5010876;28;20048;-80
2024/01/19 00:51:43;;;;;;;2.97;1.02;;;;;;;;;;5021731;28;20498;-79
2024/01/19 00:54:09;;;;;;;19.27;1.95;;;;;;;;;;5039550;28;20053;-79
2024/01/19 00:56:35;;;;;;;2.40;0.10;;;;;;;;;;5022961;28;20082;-79
2024/01/19 00:59:01;;;;;;;4.63;0.10;;;;;;;;;;5039657;28;20044;-79
2024/01/19 01:01:27;;;;;;;2.75;0.20;;;;;;;;;;5039371;28;20143;-79
2024/01/19 01:03:55;;;;;;;1.23;0.03;;;;;;;;;;5023692;28;20091;-78
2024/01/19 01:06:21;;;;;;;0.93;0.10;;;;;;;;;;5023107;28;20044;-78
2024/01/19 01:08:47;;;;;;;4.35;0.15;;;;;;;;;;5039475;28;20076;-78
2024/01/19 01:11:13;;;;;;;1.92;0.10;;;;;;;;;;5038941;28;20544;-78
2024/01/19 01:13:39;;;;;;;1.92;0.15;;;;;;;;;;5019282;28;20050;-77
2024/01/19 01:16:05;;;;;;;4.97;0.70;;;;;;;;;;5046915;28;20095;-79
2024/01/19 01:18:32;;;;;;;4.47;0.20;;;;;;;;;;5039656;28;20116;-77
2024/01/19 01:20:58;;;;;;;8.65;0.65;;;;;;;;;;5038980;28;20048;-78
2024/01/19 01:23:24;;;;;;;2.55;0.10;;;;;;;;;;5039556;28;20120;-78
2024/01/19 01:25:50;;;;;;;7.68;0.20;;;;;;;;;;5022525;28;20516;-78
2024/01/19 01:28:17;;;;;;;3.35;0.10;;;;;;;;;;5039349;28;20404;-79
2024/01/19 01:30:43;;;;;;;3.08;0.10;;;;;;;;;;5038685;28;20074;-79
2024/01/19 01:33:09;;;;;;;2.28;0.20;;;;;;;;;;5019189;28;20831;-79
2024/01/19 01:35:36;;;;;;;0.20;0.00;;;;;;;;;;5023526;28;20500;-80
2024/01/19 01:38:03;;;;;;;5.63;0.20;;;;;;;;;;5022830;28;20056;-79
2024/01/19 01:40:29;;;;;;;2.20;0.10;;;;;;;;;;5039114;28;20041;-79
2024/01/19 01:43:00;;;;;;;2.53;0.25;;;;;;;;;;5019048;28;20119;-80
2024/01/19 01:45:27;;;;;;;0.82;0.13;;;;;;;;;;5038631;28;20052;-80
2024/01/19 01:47:53;;;;;;;1.60;0.38;;;;;;;;;;5019603;28;20053;-79
2024/01/19 01:50:19;;;;;;;5.47;0.28;;;;;;;;;;5011186;28;20036;-79
2024/01/19 01:52:46;;;;;;;2.85;0.50;;;;;;;;;;5013252;28;20049;-79
2024/01/19 01:55:12;;;;;;;2.13;0.93;;;;;;;;;;5022068;28;20119;-79
2024/01/19 01:57:40;;;;;;;4.57;0.30;;;;;;;;;;5018333;28;20178;-79
2024/01/19 02:00:08;;;;;;;9.35;0.60;;;;;;;;;;5018352;28;20183;-79
2024/01/19 02:02:34;;;;;;;5.70;0.90;;;;;;;;;;5038778;28;20056;-79
2024/01/19 02:05:00;;;;;;;7.57;1.35;;;;;;;;;;5038747;28;20152;-79
2024/01/19 02:07:27;;;;;;;2.10;0.68;;;;;;;;;;5021618;28;20049;-79
2024/01/19 02:09:53;;;;;;;9.50;0.70;;;;;;;;;;5038719;28;20596;-79
2024/01/19 02:12:19;;;;;;;8.35;0.60;;;;;;;;;;5021917;28;20052;-80
2024/01/19 02:14:45;;;;;;;3.65;0.77;;;;;;;;;;5014978;28;20041;-79
2024/01/19 02:17:11;;;;;;;6.15;0.82;;;;;;;;;;5038501;28;20049;-80
2024/01/19 02:19:39;;;;;;;7.93;0.77;;;;;;;;;;5038364;28;20048;-79
2024/01/19 02:22:05;;;;;;;3.28;0.60;;;;;;;;;;5038460;28;20202;-79
2024/01/19 02:24:32;;;;;;;7.50;1.25;;;;;;;;;;5021651;28;20041;-81
2024/01/19 02:27:02;;;;;;;5.47;0.85;;;;;;;;;;5013802;28;20834;-79
2024/01/19 02:29:28;;;;;;;5.88;0.57;;;;;;;;;;5016418;28;20045;-79
2024/01/19 02:31:55;;;;;;;5.03;0.70;;;;;;;;;;5037052;28;20124;-79
2024/01/19 02:34:22;;;;;;;8.48;0.90;;;;;;;;;;5041842;28;20061;-79
2024/01/19 02:36:48;;;;;;;18.02;1.95;;;;;;;;;;5041765;28;20045;-79
2024/01/19 02:39:15;;;;;;;4.30;0.88;;;;;;;;;;5041818;28;20048;-80
2024/01/19 02:41:41;;;;;;;5.90;0.60;;;;;;;;;;5024218;28;20728;-78
2024/01/19 02:44:08;;;;;;;5.38;0.93;;;;;;;;;;5015175;28;20102;-78
2024/01/19 02:46:38;;;;;;;11.35;1.77;;;;;;;;;;5041499;28;20048;-79
2024/01/19 02:49:04;;;;;;;5.47;0.43;;;;;;;;;;5025452;28;20087;-79
2024/01/19 02:51:32;;;;;;;4.82;0.40;;;;;;;;;;5041453;28;20048;-78
2024/01/19 02:53:59;;;;;;;3.80;0.35;;;;;;;;;;5041485;28;20041;-79
2024/01/19 02:56:25;;;;;;;7.32;0.70;;;;;;;;;;5041474;28;20731;-79
2024/01/19 02:58:51;;;;;;;9.55;0.60;;;;;;;;;;5041157;28;20095;-79
2024/01/19 03:01:18;;;;;;;11.63;1.05;;;;;;;;;;5040891;28;20504;-79
2024/01/19 03:03:44;;;;;;;5.85;0.70;;;;;;;;;;5024561;28;20044;-78
2024/01/19 03:06:10;;;;;;;5.75;0.50;;;;;;;;;;5024329;28;20048;-78
2024/01/19 03:08:37;;;;;;;6.78;1.17;;;;;;;;;;5014006;28;20079;-78
2024/01/19 03:11:03;;;;;;;5.15;0.40;;;;;;;;;;5054311;28;20835;-79
2024/01/19 03:13:29;;;;;;;8.13;0.68;;;;;;;;;;5016108;28;20409;-79
2024/01/19 03:15:57;;;;;;;4.15;0.40;;;;;;;;;;5041894;28;20092;-79
2024/01/19 03:18:24;;;;;;;9.18;0.57;;;;;;;;;;5019049;28;20044;-79
2024/01/19 03:20:50;;;;;;;5.13;0.30;;;;;;;;;;5024589;28;20190;-79
2024/01/19 03:23:16;;;;;;;2.90;0.30;;;;;;;;;;5021145;28;20046;-79
2024/01/19 03:25:42;;;;;;;3.95;0.35;;;;;;;;;;5040535;28;20683;-79
2024/01/19 03:28:08;;;;;;;7.97;0.35;;;;;;;;;;5040632;28;20345;-79
2024/01/19 03:30:34;;;;;;;4.30;0.20;;;;;;;;;;5024062;28;20036;-79
2024/01/19 03:33:00;;;;;;;4.05;0.22;;;;;;;;;;5041184;28;20065;-79
2024/01/19 03:35:27;;;;;;;4.45;0.20;;;;;;;;;;5040720;28;20064;-79
2024/01/19 03:37:53;;;;;;;6.32;0.30;;;;;;;;;;5022458;28;20041;-79
2024/01/19 03:40:19;;;;;;;7.13;0.55;;;;;;;;;;5040471;28;20044;-79
2024/01/19 03:42:45;;;;;;;5.13;1.23;;;;;;;;;;5021721;28;20810;-79
2024/01/19 03:45:11;;;;;;;7.72;0.75;;;;;;;;;;5040347;28;20811;-80
2024/01/19 03:47:37;;;;;;;6.75;0.47;;;;;;;;;;5018684;28;20045;-79
2024/01/19 03:50:05;;;;;;;8.43;0.85;;;;;;;;;;5024415;28;20790;-80
2024/01/19 03:52:32;;;;;;;5.60;0.40;;;;;;;;;;5040510;28;20056;-79
2024/01/19 03:54:58;;;;;;;4.78;0.25;;;;;;;;;;5040475;28;20052;-79
2024/01/19 03:57:24;;;;;;;8.05;0.60;;;;;;;;;;5024065;28;20041;-79
2024/01/19 03:59:51;;;;;;;1.92;0.20;;;;;;;;;;5039887;28;20045;-79
2024/01/19 04:02:17;;;;;;;5.15;0.95;;;;;;;;;;5011489;28;20037;-79
2024/01/19 04:04:43;;;;;;;4.47;0.30;;;;;;;;;;5046589;28;20295;-79
2024/01/19 04:07:10;;;;;;;3.00;0.10;;;;;;;;;;5040070;28;20317;-79
2024/01/19 04:09:36;;;;;;;7.22;2.05;;;;;;;;;;5023217;28;20045;-79
2024/01/19 04:12:13;;;;;;;2.13;0.40;;;;;;;;;;5039879;28;20045;-79
2024/01/19 04:14:40;;;;;;;10.43;0.90;;;;;;;;;;5019405;28;20040;-79
2024/01/19 04:17:06;;;;;;;10.60;0.63;;;;;;;;;;5011542;28;20095;-78
2024/01/19 04:19:32;;;;;;;3.90;0.30;;;;;;;;;;5039348;28;20102;-79
2024/01/19 04:21:58;;;;;;;2.22;0.20;;;;;;;;;;5039100;28;20044;-80
2024/01/19 04:24:24;;;;;;;3.88;0.30;;;;;;;;;;5022336;28;20574;-79
2024/01/19 04:26:50;;;;;;;5.15;0.20;;;;;;;;;;5040122;28;20402;-79
2024/01/19 04:29:17;;;;;;;2.25;0.52;;;;;;;;;;5040055;28;20076;-79
2024/01/19 04:31:43;;;;;;;2.63;0.20;;;;;;;;;;5040278;28;20061;-80
2024/01/19 04:34:09;;;;;;;8.35;0.20;;;;;;;;;;5046959;28;20059;-80
2024/01/19 04:36:35;;;;;;;2.28;0.20;;;;;;;;;;5022877;28;20214;-80
2024/01/19 04:39:02;;;;;;;5.57;0.40;;;;;;;;;;5023842;28;20386;-80
2024/01/19 04:41:28;;;;;;;5.40;0.35;;;;;;;;;;5016595;28;21020;-80
2024/01/19 04:43:54;;;;;;;4.95;0.30;;;;;;;;;;5008852;28;20045;-80
2024/01/19 04:46:20;;;;;;;3.05;0.95;;;;;;;;;;5020299;28;20041;-80
2024/01/19 04:48:46;;;;;;;5.78;0.35;;;;;;;;;;5023075;28;20052;-80
2024/01/19 04:51:12;;;;;;;7.55;0.40;;;;;;;;;;5039145;28;20148;-80
2024/01/19 04:53:39;;;;;;;5.28;0.20;;;;;;;;;;5039306;28;20040;-79
2024/01/19 04:56:06;;;;;;;3.72;0.30;;;;;;;;;;5038266;28;20036;-80
2024/01/19 04:58:35;;;;;;;4.18;0.95;;;;;;;;;;5039113;28;20666;-80
2024/01/19 05:01:02;;;;;;;9.77;0.47;;;;;;;;;;5038977;28;20119;-80
2024/01/19 05:03:28;;;;;;;8.77;0.28;;;;;;;;;;5038669;28;20040;-80
2024/01/19 05:05:54;;;;;;;5.10;0.35;;;;;;;;;;5033784;28;20033;-80
2024/01/19 05:08:20;;;;;;;6.20;0.30;;;;;;;;;;5038089;28;20527;-80
2024/01/19 05:10:46;;;;;;;5.38;0.38;;;;;;;;;;5021158;28;20791;-80
2024/01/19 05:13:13;;;;;;;6.53;0.50;;;;;;;;;;5009274;28;20053;-80
2024/01/19 05:15:39;;;;;;;5.07;0.32;;;;;;;;;;5017122;28;20041;-79
2024/01/19 05:18:05;;;;;;;6.72;0.40;;;;;;;;;;5022856;28;20036;-80
2024/01/19 05:20:32;;;;;;;3.33;0.43;;;;;;;;;;5022401;28;20047;-80
2024/01/19 05:22:58;;;;;;;7.30;0.60;;;;;;;;;;5022390;28;20050;-80
2024/01/19 05:25:24;;;;;;;5.53;0.35;;;;;;;;;;5038791;28;20059;-80
2024/01/19 05:27:53;;;;;;;5.68;0.30;;;;;;;;;;5021526;28;20045;-80
2024/01/19 05:30:19;;;;;;;3.60;0.32;;;;;;;;;;5020887;28;20054;-80
2024/01/19 05:32:45;;;;;;;8.30;1.52;;;;;;;;;;5021186;28;20072;-80
2024/01/19 05:35:11;;;;;;;6.78;0.82;;;;;;;;;;5037878;28;20161;-80
2024/01/19 05:37:38;;;;;;;4.22;0.40;;;;;;;;;;5015586;28;20052;-80
2024/01/19 05:40:04;;;;;;;6.07;0.68;;;;;;;;;;5021289;28;20492;-80
2024/01/19 05:42:30;;;;;;;6.82;0.52;;;;;;;;;;5009027;28;20044;-80
2024/01/19 05:44:56;;;;;;;7.80;0.47;;;;;;;;;;5044406;28;20720;-80
2024/01/19 05:47:23;;;;;;;5.30;0.90;;;;;;;;;;5010300;28;20045;-80
2024/01/19 05:49:49;;;;;;;4.32;0.75;;;;;;;;;;5019313;28;20052;-80
2024/01/19 05:52:15;;;;;;;8.82;0.93;;;;;;;;;;5012131;28;20102;-80
2024/01/19 05:54:41;;;;;;;8.02;0.30;;;;;;;;;;5020954;28;20128;-80
2024/01/19 05:57:09;;;;;;;4.55;0.40;;;;;;;;;;5016136;28;20629;-80
2024/01/19 05:59:38;;;;;;;3.80;0.50;;;;;;;;;;5020266;28;20144;-79
2024/01/19 06:02:07;;;;;;;6.85;0.73;;;;;;;;;;5017402;28;20110;-80
2024/01/19 06:04:36;;;;;;;8.45;0.40;;;;;;;;;;5037943;28;20114;-79
2024/01/19 06:07:03;;;;;;;5.25;0.38;;;;;;;;;;5024512;28;20059;-80
2024/01/19 06:09:29;;;;;;;5.53;0.50;;;;;;;;;;5025483;28;20051;-80
2024/01/19 06:11:55;;;;;;;9.57;0.70;;;;;;;;;;5020956;28;20549;-79
2024/01/19 06:14:21;;;;;;;2.33;0.50;;;;;;;;;;5024371;28;20048;-79
2024/01/19 06:16:53;;;;;;;5.15;0.40;;;;;;;;;;5014722;28;20041;-79
2024/01/19 06:19:20;;;;;;;6.45;0.35;;;;;;;;;;5044680;28;20037;-79
2024/01/19 06:21:46;;;;;;;5.00;0.40;;;;;;;;;;5025020;28;20137;-79
2024/01/19 06:24:18;;;;;;;3.78;0.80;;;;;;;;;;5025578;28;20063;-80
2024/01/19 06:26:45;;;;;;;6.00;0.30;;;;;;;;;;5041278;28;20123;-80
2024/01/19 06:29:11;;;;;;;7.90;0.70;;;;;;;;;;5025706;28;20545;-79
2024/01/19 06:31:44;;;;;;;6.03;0.30;;;;;;;;;;5041686;28;20048;-79
2024/01/19 06:34:11;;;;;;;8.60;0.55;;;;;;;;;;5021619;28;20054;-79
2024/01/19 06:36:37;;;;;;;9.00;0.60;;;;;;;;;;5021427;28;20072;-79
2024/01/19 06:39:04;;;;;;;8.05;0.50;;;;;;;;;;5018081;28;20045;-79
2024/01/19 06:41:31;;;;;;;6.55;0.80;;;;;;;;;;5023972;28;20077;-79
2024/01/19 06:43:57;;;;;;;10.93;0.88;;;;;;;;;;5042001;28;20053;-78
2024/01/19 06:46:23;;;;;;;5.13;0.93;;;;;;;;;;5024642;28;20052;-78
2024/01/19 06:48:49;;;;;;;7.53;1.55;;;;;;;;;;5015713;28;20071;-79
2024/01/19 06:51:16;;;;;;;5.63;1.15;;;;;;;;;;5025314;28;20053;-78
2024/01/19 06:53:42;;;;;;;7.03;1.25;;;;;;;;;;5023306;28;20589;-78
2024/01/19 06:56:08;;;;;;;7.95;0.70;;;;;;;;;;5041173;28;20686;-79
2024/01/19 06:58:35;;;;;;;8.35;2.30;;;;;;;;;;5020259;28;20052;-79
2024/01/19 07:01:01;;;;;;;11.35;0.88;;;;;;;;;;5018330;28;20037;-80
2024/01/19 07:03:27;;;;;;;9.93;0.52;;;;;;;;;;5041357;28;20075;-80
2024/01/19 07:05:54;;;;;;;12.90;1.55;;;;;;;;;;5025005;28;20068;-80
2024/01/19 07:08:21;;;;;;;8.82;0.77;;;;;;;;;;5040130;28;20100;-79
2024/01/19 07:10:48;;;;;;;8.02;0.70;;;;;;;;;;5022612;28;20052;-80
2024/01/19 07:13:14;;;;;;;9.48;1.15;;;;;;;;;;5041271;28;20123;-80
2024/01/19 07:15:40;;;;;;;8.57;1.67;;;;;;;;;;5040219;28;20045;-80
2024/01/19 07:18:06;;;;;;;3.38;0.70;;;;;;;;;;5040223;28;20051;-79
2024/01/19 07:20:32;;;;;;;4.30;0.40;;;;;;;;;;5024212;28;20576;-80
2024/01/19 07:23:01;;;;;;;7.82;0.73;;;;;;;;;;5040317;28;20841;-78
2024/01/19 07:25:27;;;;;;;4.20;0.40;;;;;;;;;;5041160;28;20063;-79
2024/01/19 07:27:53;;;;;;;9.65;1.10;;;;;;;;;;5040479;28;20153;-79
2024/01/19 07:30:22;;;;;;;5.38;0.30;;;;;;;;;;5041494;28;20059;-79
2024/01/19 07:32:48;;;;;;;5.47;0.40;;;;;;;;;;5011930;28;20075;-79
2024/01/19 07:35:14;;;;;;;9.73;0.70;;;;;;;;;;5022970;28;20045;-78
2024/01/19 07:37:40;;;;;;;12.20;0.63;;;;;;;;;;5020794;28;20056;-80
2024/01/19 07:40:07;;;;;;;9.63;1.20;;;;;;;;;;5038919;28;20079;-80
2024/01/19 07:42:33;;;;;;;10.40;1.35;;;;;;;;;;5023630;28;20045;-80
2024/01/19 07:44:59;;;;;;;8.93;0.50;;;;;;;;;;5036598;28;20049;-79
2024/01/19 07:47:26;;;;;;;8.00;1.90;;;;;;;;;;5024438;28;20051;-79
2024/01/19 07:49:52;;;;;;;9.32;0.70;;;;;;;;;;5040598;28;20666;-79
2024/01/19 07:52:19;;;;;;;11.05;0.38;;;;;;;;;;5024548;28;20147;-79
2024/01/19 07:54:45;;;;;;;15.57;0.70;;;;;;;;;;5029286;28;20650;-79
2024/01/19 07:57:11;;;;;;;6.22;0.40;;;;;;;;;;5040239;28;20052;-79
2024/01/19 07:59:37;;;;;;;9.20;0.77;;;;;;;;;;5023030;28;20571;-80
2024/01/19 08:02:03;;;;;;;13.20;0.70;;;;;;;;;;5039413;28;20103;-79
2024/01/19 08:04:30;;;;;;;9.63;0.98;;;;;;;;;;5038891;28;20045;-79
2024/01/19 08:06:56;;;;;;;15.55;0.80;;;;;;;;;;5038451;28;20044;-79
2024/01/19 08:09:22;;;;;;;12.02;0.95;;;;;;;;;;5023250;28;20378;-78
2024/01/19 08:11:50;;;;;;;12.55;0.68;;;;;;;;;;5038403;28;20049;-78
2024/01/19 08:14:17;;;;;;;14.70;0.88;;;;;;;;;;5021685;28;20132;-79
2024/01/19 08:16:43;;;;;;;10.75;1.38;;;;;;;;;;5021377;28;20036;-79
2024/01/19 08:19:10;;;;;;;9.38;1.80;;;;;;;;;;5021583;28;20117;-79
2024/01/19 08:21:42;;;;;;;12.90;0.68;;;;;;;;;;5018635;28;20041;-79
2024/01/19 08:24:08;;;;;;;12.68;0.98;;;;;;;;;;5038196;28;20076;-79
2024/01/19 08:26:35;;;;;;;8.93;1.42;;;;;;;;;;5022928;28;20532;-79
2024/01/19 08:29:01;;;;;;;4.63;0.63;;;;;;;;;;5038019;28;20045;-79
2024/01/19 08:31:29;;;;;;;12.88;0.80;;;;;;;;;;5015829;28;20041;-79
2024/01/19 08:33:58;;;;;;;4.90;0.70;;;;;;;;;;5022199;28;20060;-79
2024/01/19 08:36:24;;;;;;;8.20;1.15;;;;;;;;;;5019082;28;20490;-79
2024/01/19 08:38:54;;;;;;;5.30;0.73;;;;;;;;;;5039518;28;20753;-79
2024/01/19 08:41:20;;;;;;;9.75;1.00;;;;;;;;;;5039637;28;20495;-80
2024/01/19 08:43:49;;;;;;;12.23;0.98;;;;;;;;;;5022266;28;20045;-79
2024/01/19 08:46:15;;;;;;;10.05;0.95;;;;;;;;;;5019339;28;20054;-79
2024/01/19 08:48:45;;;;;;;7.05;1.02;;;;;;;;;;5021295;28;20064;-80
2024/01/19 08:51:18;;;;;;;12.27;0.50;;;;;;;;;;5035208;28;20639;-79
2024/01/19 08:53:46;;;;;;;6.28;0.68;;;;;;;;;;5037613;28;20056;-79
2024/01/19 08:56:21;;;;;;;10.05;1.10;;;;;;;;;;5022010;28;20036;-79
2024/01/19 08:58:47;;;;;;;9.38;0.68;;;;;;;;;;5038493;28;20037;-79
2024/01/19 09:01:20;;;;;;;7.63;0.75;;;;;;;;;;5021866;28;20060;-79
2024/01/19 09:03:46;;;;;;;11.65;0.80;;;;;;;;;;5038524;28;20154;-79
2024/01/19 09:06:12;;;;;;;14.32;2.47;;;;;;;;;;5038005;28;20045;-79
2024/01/19 09:08:42;;;;;;;8.60;1.05;;;;;;;;;;5021219;28;20033;-79
2024/01/19 09:11:12;;;;;;;15.23;1.15;;;;;;;;;;5020708;28;20525;-79
2024/01/19 09:13:38;;;;;;;7.65;1.13;;;;;;;;;;5017245;28;20194;-79
2024/01/19 09:16:08;;;;;;;11.45;0.90;;;;;;;;;;5019723;28;20493;-79
2024/01/19 09:18:38;;;;;;;12.25;1.20;;;;;;;;;;5038619;28;20072;-79
2024/01/19 09:21:05;;;;;;;9.15;2.88;;;;;;;;;;5022127;28;20123;-80
2024/01/19 09:23:31;;;;;;;6.75;0.82;;;;;;;;;;5038628;28;20037;-81
2024/01/19 09:25:57;;;;;;;8.70;1.15;;;;;;;;;;5018440;28;20041;-81
2024/01/19 09:28:23;;;;;;;10.80;0.90;;;;;;;;;;5046653;28;20029;-81
2024/01/19 09:30:50;;;;;;;7.85;0.77;;;;;;;;;;5018170;28;20847;-81
2024/01/19 09:33:16;;;;;;;10.98;1.20;;;;;;;;;;5035437;28;20061;-81
2024/01/19 09:35:42;;;;;;;10.43;1.20;;;;;;;;;;5015796;28;20052;-79
2024/01/19 09:38:08;;;;;;;9.70;0.85;;;;;;;;;;5035896;28;20041;-79
2024/01/19 09:40:34;;;;;;;5.90;0.90;;;;;;;;;;5017066;28;20064;-79
2024/01/19 09:43:02;;;;;;;7.53;0.95;;;;;;;;;;5030773;28;20106;-79
2024/01/19 09:45:34;;;;;;;13.38;1.08;;;;;;;;;;5017115;28;20044;-79
2024/01/19 09:48:10;;;;;;;11.70;2.30;;;;;;;;;;5021042;28;20609;-80
2024/01/19 09:50:37;;;;;;;13.90;1.95;;;;;;;;;;5018173;28;20041;-79
2024/01/19 09:53:15;;;;;;;12.20;1.58;;;;;;;;;;5038805;28;20048;-80
2024/01/19 09:55:41;;;;;;;6.07;0.82;;;;;;;;;;5036245;28;20048;-80
2024/01/19 09:58:07;;;;;;;11.35;1.40;;;;;;;;;;5021947;28;20072;-80
2024/01/19 10:00:33;;;;;;;14.57;1.70;;;;;;;;;;5021288;28;20506;-80
2024/01/19 10:03:00;;;;;;;11.95;1.27;;;;;;;;;;5021477;28;20553;-80
2024/01/19 10:05:26;;;;;;;10.50;1.63;;;;;;;;;;5020684;28;20045;-80
2024/01/19 10:07:55;;;;;;;12.93;1.42;;;;;;;;;;5021513;28;20055;-81
2024/01/19 10:10:21;;;;;;;16.60;1.45;;;;;;;;;;5019178;28;20045;-81
2024/01/19 10:12:47;;;;;;;10.18;1.35;;;;;;;;;;5037062;28;20048;-81
2024/01/19 10:15:14;;;;;;;16.65;1.60;;;;;;;;;;5021679;28;20591;-81
2024/01/19 10:17:41;;;;;;;14.82;1.50;;;;;;;;;;5021431;28;20162;-82
2024/01/19 10:20:10;;;;;;;13.70;1.70;;;;;;;;;;5028674;28;20044;-82
2024/01/19 10:22:37;;;;;;;16.20;1.30;;;;;;;;;;5011857;28;20741;-81
2024/01/19 10:25:10;;;;;;;19.95;2.10;;;;;;;;;;5013353;28;20052;-83
2024/01/19 10:27:39;;;;;;;18.02;1.58;;;;;;;;;;5036601;28;20052;-82
2024/01/19 10:30:08;;;;;;;14.65;1.52;;;;;;;;;;5033655;28;20083;-82
2024/01/19 10:32:35;;;;;;;15.38;1.80;;;;;;;;;;5034164;28;20051;-83
2024/01/19 10:35:08;;;;;;;19.65;1.88;;;;;;;;;;5016724;28;20053;-83
2024/01/19 10:37:35;;;;;;;21.73;3.10;;;;;;;;;;5036097;28;20531;-82
2024/01/19 10:40:13;;;;;;;11.60;1.67;;;;;;;;;;5020083;28;20037;-82
2024/01/19 10:42:42;;;;;;;13.85;1.73;;;;;;;;;;5030021;28;20352;-82
2024/01/19 10:45:16;;;;;;;13.10;2.58;;;;;;;;;;5020690;28;20075;-82
2024/01/19 10:47:43;;;;;;;15.32;2.40;;;;;;;;;;5024415;28;20080;-84
2024/01/19 10:50:14;;;;;;;18.98;3.15;;;;;;;;;;5031813;28;20045;-84
2024/01/19 10:52:41;;;;;;;14.45;3.28;;;;;;;;;;5016303;28;20053;-85
2024/01/19 10:55:07;;;;;;;17.20;2.60;;;;;;;;;;5023649;28;20041;-85
2024/01/19 10:57:34;;;;;;;26.60;3.50;;;;;;;;;;5019352;28;20062;-86
2024/01/19 11:00:17;;;;;;;19.85;2.50;;;;;;;;;;5040541;28;20056;-86
2024/01/19 11:02:44;;;;;;;20.92;2.92;;;;;;;;;;5043128;28;20051;-86
2024/01/19 11:05:11;;;;;;;17.77;3.38;;;;;;;;;;5024468;28;20552;-85
2024/01/19 11:07:40;;;;;;;16.88;3.85;;;;;;;;;;5019229;28;20103;-86
2024/01/19 11:10:06;;;;;;;20.35;3.33;;;;;;;;;;5042177;28;20052;-86
2024/01/19 11:12:35;;;;;;;18.40;3.92;;;;;;;;;;5027994;28;20135;-85
2024/01/19 11:15:01;;;;;;;24.48;3.75;;;;;;;;;;5024021;28;20102;-87
2024/01/19 11:17:28;;;;;;;19.50;3.83;;;;;;;;;;5028425;28;20045;-86
2024/01/19 11:19:57;;;;;;;18.70;3.70;;;;;;;;;;4997273;28;20041;-86
2024/01/19 11:22:23;;;;;;;24.30;4.05;;;;;;;;;;5044141;28;20033;-86
2024/01/19 11:24:50;;;;;;;19.27;4.95;;;;;;;;;;5044882;28;20049;-87
2024/01/19 11:27:31;;;;;;;15.60;3.85;;;;;;;;;;5044421;28;20104;-87
2024/01/19 11:30:14;;;;;;;20.88;3.92;;;0.30;99.90;;;;;;5027758;28;20050;-87
2024/01/19 11:32:40;;;;;;;21.17;5.10;;;;;;;;;;5020896;28;20484;-88
2024/01/19 11:35:13;;;;;;;18.65;3.75;;;;;;;;;;5027613;28;20131;-89
2024/01/19 11:37:44;;;;;;;13.90;3.53;;;;;;;;;;5027932;28;20053;-88
2024/01/19 11:40:26;;;;;;;21.23;3.65;;;-0.70;99.90;;;;;;5036414;28;20041;-88
2024/01/19 11:42:52;;;;;;;16.40;4.00;;;;;;;;;;5048253;28;20506;-88
2024/01/19 11:45:39;;;;;;;20.83;4.20;;;;;;;;;;5056585;28;20042;-88
2024/01/19 11:48:08;;;;;;;15.85;3.80;;;;;;;;;;5046074;28;20075;-86
2024/01/19 11:50:47;;;;;;;15.15;3.53;;;;;;;;;;5029207;28;20052;-88
2024/01/19 11:53:14;;;;;;;12.75;2.97;;;;;;;;;;5027939;28;20570;-88
2024/01/19 11:55:41;;;;;;;16.83;4.90;;;;;;;;;;5029717;28;20050;-88
2024/01/19 11:58:40;;;;;;;;;;;;;;;;;;;;;
2024/01/19 12:01:19;;;;;;;17.45;4.20;;;;;;;;;;5040073;28;20060;-85
2024/01/19 12:03:51;;;;;;;15.77;3.45;;;;;;;;;;5022497;28;20440;-87
2024/01/19 12:06:19;;;;;;;21.27;4.45;;;;;;;;;;5027542;28;20389;-87
2024/01/19 12:08:59;;;;;;;8.40;2.47;;;;;;;;;;5027305;28;20417;-88
2024/01/19 12:11:28;;;;;;;14.25;2.55;;;;;;;;;;5029188;28;20041;-88
2024/01/19 12:14:02;;;;;;;9.95;2.30;;;;;;;;;;5044390;28;20146;-88
2024/01/19 12:16:35;;;;;;;16.90;2.65;;;;;;;;;;5034004;28;20537;-87
2024/01/19 12:19:09;;;;;;;13.40;3.22;;;;;;;;;;5015430;28;20038;-86
2024/01/19 12:21:35;;;;;;;11.82;2.70;;;;;;;;;;5008596;28;20548;-86
2024/01/19 12:24:01;;;;;;;9.20;2.45;;;;;;;;;;5025468;28;20044;-86
2024/01/19 12:26:27;;;;;;;10.75;2.30;;;;;;;;;;5027966;28;20513;-87
2024/01/19 12:28:59;;;;;;;12.77;2.05;;;;;;;;;;5027260;28;20045;-89
2024/01/19 12:31:36;;;;;;;15.30;3.10;;;;;;;;;;5030898;28;20408;-89
2024/01/19 12:34:13;;;;;;;10.75;2.67;;;;;;;;;;5048280;28;20091;-90
2024/01/19 12:36:44;;;;;;;9.10;2.67;;;;;;;;;;5048615;28;20044;-90
2024/01/19 12:39:13;;;;;;;14.38;2.38;;;;;;;;;;5047234;28;20127;-90
2024/01/19 12:41:40;;;;;;;14.88;1.80;;;;;;;;;;5059700;28;20087;-90
2024/01/19 12:44:07;;;;;;;28.33;2.85;;;;;;;;;;5028511;28;20045;-91
2024/01/19 12:46:33;;;;;;;12.80;2.90;;;;;;;;;;5033183;28;20076;-93
2024/01/19 12:49:08;;;;;;;14.70;3.03;;;;;;;;;;5033556;28;20075;-92
2024/01/19 12:51:37;;;;;;;11.18;2.78;;;;;;;;;;5026479;28;20045;-92
2024/01/19 12:54:03;;;;;;;12.38;2.30;;;;;;;;;;5025672;28;20048;-93
2024/01/19 12:56:35;;;;;;;9.02;2.17;;;;;;;;;;5030766;28;20792;-92
2024/01/19 12:59:16;;;;;;;9.90;2.42;;;;;;;;;;5034544;28;20048;-91
2024/01/19 13:01:51;;;;;;;10.60;2.30;;;;;;;;;;5034333;28;20084;-92
2024/01/19 13:04:17;;;;;;;15.07;2.78;;;;;;;;;;5022970;28;20050;-92
2024/01/19 13:06:56;;;;;;;13.75;2.88;;;;;;;;;;5032078;28;20061;-92
2024/01/19 13:09:25;;;;;;;11.55;2.22;;;;;;;;;;5030771;28;20060;-89
2024/01/19 13:11:53;;;;;;;6.45;1.92;;;;;;;;;;5033493;28;20072;-90
2024/01/19 13:14:25;;;;;;;18.00;2.85;;;;;;;;;;5046482;28;20055;-89
2024/01/19 13:16:53;;;;;;;17.55;3.65;;;;;;;;;;5043966;28;20041;-88
2024/01/19 13:19:22;;;;;;;14.02;3.00;;;;;;;;;;5026491;28;20083;-87
2024/01/19 13:21:48;;;;;;;11.57;1.90;;;;;;;;;;5021399;28;20056;-88
2024/01/19 13:24:18;;;;;;;6.03;1.90;;;;;;;;;;5026791;28;20072;-90
2024/01/19 13:26:57;;;;;;;6.85;1.67;;;;;;;;;;5027481;28;20535;-90
2024/01/19 13:29:32;;;;;;;11.45;2.15;;;;;;;;;;5019342;28;20055;-90
2024/01/19 13:32:01;;;;;;;15.75;2.65;;;;;;;;;;5028656;28;20098;-90
2024/01/19 13:34:37;;;;;;;12.80;2.78;;;;;;;;;;5043908;28;20057;-90
2024/01/19 13:37:29;;;;;;;9.18;1.92;;;;;;;;;;5146918;27;20790;-88
2024/01/19 13:39:57;;;;;;;6.65;1.25;;;;;;;;;;5106410;27;20139;-86
2024/01/19 13:42:32;;;;;;;10.82;2.22;;;;;;;;;;5110664;27;20043;-90
2024/01/19 13:44:59;;;;;;;9.48;1.63;;;;;;;;;;5102466;27;20578;-93
2024/01/19 13:47:25;;;;;;;13.23;5.20;;;;;;;;;;5107330;27;20545;-88
2024/01/19 13:49:54;;;;;;;15.45;2.35;;;;;;;;;;5114182;27;20043;-88
2024/01/19 13:52:21;;;;;;;8.80;1.60;;;;;;;;;;5099534;27;20031;-89
2024/01/19 13:54:49;;;;;;;14.60;2.75;;;;;;;;;;5107601;27;20088;-92
2024/01/19 13:57:16;;;;;;;8.13;0.90;;;;;;;;;;5108533;27;20669;-87
2024/01/19 13:59:43;;;;;;;4.00;1.45;;;;;;;;;;5114248;27;20035;-91
2024/01/19 14:02:10;;;;;;;10.93;0.90;;;;;;;;;;5118338;27;20039;-87
2024/01/19 14:04:39;;;;;;;9.75;2.00;;;;;;;;;;5107703;27;20680;-89
2024/01/19 14:07:07;;;;;;;10.55;1.20;;;;;;;;;;5105352;27;20043;-88
2024/01/19 14:09:37;;;;;;;16.02;1.17;;;;;;;;;;5118968;27;20134;-87
2024/01/19 14:12:04;;;;;;;14.88;1.20;;;;;;;;;;5118736;27;20571;-89
2024/01/19 14:14:31;;;;;;;10.23;1.10;;;;;;;;;;5124707;27;20046;-90
2024/01/19 14:16:58;;;;;;;10.38;0.93;;;;;;;;;;5104077;27;20035;-89
2024/01/19 14:19:27;;;;;;;8.70;0.60;;;;;;;;;;5120804;27;20146;-91
2024/01/19 14:21:56;;;;;;;10.00;1.33;;;;;;;;;;5060291;28;20127;-90
2024/01/19 14:24:25;;;;;;;13.00;1.65;;;;;;;;;;5092062;28;20044;-90
2024/01/19 14:26:51;;;;;;;7.10;0.52;;;;;;;;;;5080929;28;20400;-88
2024/01/19 14:29:17;;;;;;;12.25;1.13;;;;;;;;;;5076067;28;20054;-92
2024/01/19 14:31:44;;;;;;;12.07;0.98;;;;;;;;;;5094891;28;20493;-88
2024/01/19 14:34:10;;;;;;;4.22;0.85;;;;;;;;;;5086108;28;20459;-86
2024/01/19 14:36:37;;;;;;;10.27;0.93;;;;;;;;;;5090867;28;20056;-87
2024/01/19 14:39:03;;;;;;;12.43;1.33;;;;;;;;;;5075356;28;20546;-85
2024/01/19 14:41:34;;;;;;;10.95;1.23;;;;;;;;;;5076347;28;20043;-87